Time;durP1;ratioP1;P1;durP2;ratioP2;P2;SDS_P1;SDS_P2;PMS_P1;PMS_P2;Temp;Humidity;BMP_temperature;BMP_pressure;BME280_temperature;BME280_humidity;BME280_pressure;Samples;Min_cycle;Max_cycle;Signal;HPM_P1;HPM_P2
2022/02/06 00:01:23;;;;;;;5.70;3.40;;;;;;;-0.68;80.11;96814.43;106169;1268;1842512;-83
2022/02/06 00:03:58;;;;;;;7.40;3.50;;;;;;;-0.70;79.92;96813.20;105936;1270;1777536;-82
2022/02/06 00:06:32;;;;;;;6.80;2.50;;;;;;;-0.71;80.32;96809.90;107424;1268;164941;-83
2022/02/06 00:09:04;;;;;;;7.40;3.40;;;;;;;-0.72;80.19;96799.40;107214;1268;214909;-82
2022/02/06 00:11:35;;;;;;;3.70;2.60;;;;;;;-0.75;79.88;96803.30;107359;1267;182426;-83
2022/02/06 00:14:06;;;;;;;4.70;2.60;;;;;;;-0.78;80.10;96802.06;107483;1268;142551;-82
2022/02/06 00:16:37;;;;;;;5.30;3.50;;;;;;;-0.82;80.12;96800.91;107035;1270;251345;-83
2022/02/06 00:19:08;;;;;;;7.20;3.50;;;;;;;-0.84;80.42;96804.52;107652;1268;156818;-82
2022/02/06 00:21:40;;;;;;;5.80;3.20;;;;;;;-0.91;80.25;96803.27;107582;1267;179638;-82
2022/02/06 00:24:18;;;;;;;3.90;3.00;;;;;;;-0.96;80.66;96799.60;107720;1268;145361;-82
2022/02/06 00:26:58;;;;;;;8.70;3.40;;;;;;;-1.02;80.16;96802.95;107517;1268;202974;-82
2022/02/06 00:29:39;;;;;;;5.40;2.60;;;;;;;-1.06;80.42;96793.10;107554;1268;174863;-82
2022/02/06 00:32:21;;;;;;;3.10;2.30;;;;;;;-1.12;80.56;96789.62;107506;1268;169197;-83
2022/02/06 00:35:17;;;;;;;9.80;3.40;;;;;;;-1.14;80.55;96786.20;107364;1267;227225;-82
2022/02/06 00:41:08;;;;;;;10.40;3.40;;;;;;;-1.06;80.55;96778.86;107502;1268;169538;-82
2022/02/06 00:43:42;;;;;;;5.10;3.10;;;;;;;-1.05;80.67;96770.85;105354;1267;1820573;-83
2022/02/06 00:46:15;;;;;;;4.10;2.40;;;;;;;-1.03;80.62;96770.20;107492;1268;142918;-81
2022/02/06 00:48:53;;;;;;;4.80;2.60;;;;;;;-1.02;80.64;96758.75;107259;1268;205964;-82
2022/02/06 00:51:33;;;;;;;5.00;2.80;;;;;;;-1.05;80.39;96758.23;107514;1268;120840;-82
2022/02/06 00:54:04;;;;;;;4.10;2.20;;;;;;;-1.04;80.53;96759.40;107298;1268;156406;-82
2022/02/06 00:56:39;;;;;;;4.60;2.40;;;;;;;-0.99;80.38;96756.16;107466;1267;119106;-83
2022/02/06 00:59:10;;;;;;;3.60;2.00;;;;;;;-0.96;80.26;96753.01;107510;1268;233700;-83
2022/02/06 01:01:42;;;;;;;6.00;2.90;;;;;;;-0.98;80.28;96747.20;107772;1268;111351;-82
2022/02/06 01:04:15;;;;;;;7.00;3.10;;;;;;;-1.01;80.10;96743.94;107510;1267;133206;-82
2022/02/06 01:06:46;;;;;;;6.10;3.90;;;;;;;-1.07;80.11;96735.63;107481;1268;187260;-83
2022/02/06 01:09:18;;;;;;;5.70;2.60;;;;;;;-1.13;79.99;96734.36;107165;1268;244533;-82
2022/02/06 01:11:51;;;;;;;5.20;3.50;;;;;;;-1.17;80.22;96723.02;107207;1270;210197;-83
2022/02/06 01:14:32;;;;;;;6.10;3.10;;;;;;;-1.15;80.17;96720.14;107387;1268;165580;-82
2022/02/06 01:17:16;;;;;;;5.70;2.50;;;;;;;-1.12;80.26;96718.63;105140;1267;2034525;-82
2022/02/06 01:19:57;;;;;;;7.00;2.90;;;;;;;-1.11;80.18;96714.91;107468;1268;125848;-82
2022/02/06 01:22:33;;;;;;;6.20;2.80;;;;;;;-1.15;80.09;96710.45;107421;1268;142346;-82
2022/02/06 01:25:09;;;;;;;8.40;3.90;;;;;;;-1.16;80.10;96700.48;107429;1267;252197;-82
2022/02/06 01:27:46;;;;;;;4.30;2.40;;;;;;;-1.20;80.16;96693.45;107563;1268;167685;-83
2022/02/06 01:30:24;;;;;;;7.30;2.80;;;;;;;-1.20;80.01;96700.90;107552;1268;140212;-82
2022/02/06 01:33:06;;;;;;;6.00;3.70;;;;;;;-1.20;80.01;96702.83;106139;1268;1763624;-83
2022/02/06 01:35:43;;;;;;;3.70;1.90;;;;;;;-1.20;79.83;96696.78;106082;1269;2013026;-82
2022/02/06 01:38:19;;;;;;;6.80;3.00;;;;;;;-1.17;79.60;96694.02;105993;1268;2118207;-82
2022/02/06 01:40:59;;;;;;;3.30;2.10;;;;;;;-1.15;79.59;96697.08;106152;1267;1801465;-82
2022/02/06 01:43:38;;;;;;;4.60;3.00;;;;;;;-1.16;79.53;96696.34;105726;1269;2303789;-82
2022/02/06 01:46:28;;;;;;;8.20;2.80;;;;;;;-1.17;79.36;96700.45;107794;1268;106911;-83
2022/02/06 02:00:54;;;;;;;4.70;2.60;;;;;;;-1.13;79.52;96674.52;108129;1268;52031;-83
2022/02/06 02:03:39;;;;;;;3.80;1.70;;;;;;;-1.11;79.43;96662.56;107945;1268;61663;-83
2022/02/06 02:06:34;;;;;;;5.00;2.00;;;;;;;-1.07;79.23;96657.70;106827;1268;1694934;-83
2022/02/06 02:12:23;;;;;;;4.20;2.70;;;;;;;-0.98;78.82;96656.05;107160;1268;216974;-82
2022/02/06 02:18:18;;;;;;;5.90;2.40;;;;;;;-0.97;78.80;96643.08;107026;1273;186949;-83
2022/02/06 02:24:13;;;;;;;2.70;1.80;;;;;;;-0.91;78.54;96635.05;106149;1268;1892832;-82
2022/02/06 02:26:57;;;;;;;3.70;2.30;;;;;;;-0.92;78.32;96629.55;107481;1268;156101;-82
2022/02/06 02:32:54;;;;;;;10.00;2.80;;;;;;;-0.92;78.25;96626.33;105765;1267;2139522;-82
2022/02/06 02:46:56;;;;;;;3.50;2.50;;;;;;;-0.89;78.27;96596.28;107801;1271;61891;-83
2022/02/06 02:49:30;;;;;;;;;;;;;;;-0.83;77.98;96592.84;107493;1268;142695;-82
2022/02/06 02:52:07;;;;;;;4.20;2.70;;;;;;;-0.81;77.90;96585.05;105113;1268;2062833;-82
2022/02/06 02:54:41;;;;;;;3.10;2.30;;;;;;;-0.79;78.12;96584.13;107616;1268;195151;-82
2022/02/06 02:57:21;;;;;;;3.40;2.30;;;;;;;-0.78;77.90;96582.11;107310;1268;2563709;-81
2022/02/06 03:00:03;;;;;;;5.00;2.80;;;;;;;-0.76;77.91;96574.93;107271;1268;246187;-82
2022/02/06 03:02:35;;;;;;;3.90;2.40;;;;;;;-0.72;77.65;96576.11;107333;1268;193848;-83
2022/02/06 03:05:07;;;;;;;5.80;2.80;;;;;;;-0.72;77.92;96573.58;107420;1268;156108;-82
2022/02/06 03:07:41;;;;;;;7.80;2.90;;;;;;;-0.71;77.97;96572.41;106442;1268;1808451;-82
2022/02/06 03:10:13;;;;;;;5.70;3.10;;;;;;;-0.72;77.73;96568.42;107510;1268;126132;-80
2022/02/06 03:12:50;;;;;;;3.50;2.10;;;;;;;-0.70;77.85;96561.09;105863;1268;2121862;-82
2022/02/06 03:15:34;;;;;;;3.50;2.10;;;;;;;-0.65;77.84;96554.45;107510;1268;136253;-82
2022/02/06 03:18:13;;;;;;;3.30;1.80;;;;;;;-0.54;77.92;96544.50;107482;1268;125282;-82
2022/02/06 03:20:45;;;;;;;5.70;2.00;;;;;;;-0.48;77.78;96542.06;107459;1268;120850;-82
2022/02/06 03:23:16;;;;;;;5.30;1.90;;;;;;;-0.42;77.28;96539.50;107507;1268;154895;-82
2022/02/06 03:25:51;;;;;;;2.30;1.60;;;;;;;-0.37;76.92;96527.05;107395;1268;131274;-82
2022/02/06 03:28:24;;;;;;;3.50;1.80;;;;;;;-0.24;76.93;96531.08;107403;1268;122434;-82
2022/02/06 03:30:55;;;;;;;4.30;2.20;;;;;;;-0.20;77.07;96524.95;107106;1268;257943;-83
2022/02/06 03:33:26;;;;;;;2.50;1.80;;;;;;;-0.14;76.69;96523.43;106125;1268;1946240;-83
2022/02/06 03:35:58;;;;;;;2.30;1.20;;;;;;;-0.07;76.42;96523.81;106508;1268;1295358;-83
2022/02/06 03:38:29;;;;;;;3.60;1.70;;;;;;;0.03;76.38;96522.50;107615;1268;114291;-83
2022/02/06 03:41:04;;;;;;;2.90;1.30;;;;;;;0.08;76.00;96520.40;107439;1268;168373;-82
2022/02/06 03:43:46;;;;;;;2.30;1.70;;;;;;;0.17;75.70;96514.48;107469;1268;146167;-83
2022/02/06 03:46:24;;;;;;;4.70;2.00;;;;;;;0.26;75.33;96507.09;107188;1268;222474;-82
2022/02/06 03:49:03;;;;;;;4.50;1.50;;;;;;;0.33;75.13;96499.92;107346;1267;160222;-83
2022/02/06 03:51:37;;;;;;;6.10;1.80;;;;;;;0.34;74.55;96489.64;107292;1268;213618;-83
2022/02/06 03:54:10;;;;;;;2.70;1.40;;;;;;;0.39;74.34;96496.20;107632;1268;169767;-83
2022/02/06 03:56:44;;;;;;;4.30;2.20;;;;;;;0.44;74.08;96493.08;107789;1268;107374;-82
2022/02/06 03:59:18;;;;;;;2.60;1.70;;;;;;;0.45;73.90;96486.89;107514;1268;167359;-83
2022/02/06 04:01:49;;;;;;;2.70;1.10;;;;;;;0.47;73.85;96478.66;107339;1268;193082;-82
2022/02/06 04:04:23;;;;;;;2.20;1.40;;;;;;;0.50;74.03;96480.25;107246;1268;197740;-82
2022/02/06 04:07:01;;;;;;;3.50;2.10;;;;;;;0.46;73.82;96472.59;107440;1268;195686;-82
2022/02/06 04:09:37;;;;;;;1.80;1.60;;;;;;;0.45;73.78;96476.46;107467;1268;174060;-83
2022/02/06 04:12:13;;;;;;;3.80;1.70;;;;;;;0.43;73.89;96467.86;107704;1268;176439;-83
2022/02/06 04:14:54;;;;;;;1.40;1.00;;;;;;;0.43;74.05;96461.87;107541;1268;156247;-82
2022/02/06 04:17:29;;;;;;;3.40;1.50;;;;;;;0.46;74.01;96465.38;107604;1268;92397;-82
2022/02/06 04:20:00;;;;;;;2.90;1.60;;;;;;;0.46;73.71;96455.98;107576;1267;165918;-82
2022/02/06 04:22:31;;;;;;;2.40;1.50;;;;;;;0.46;74.02;96452.49;107320;1268;211995;-83
2022/02/06 04:25:03;;;;;;;2.70;1.10;;;;;;;0.46;73.81;96439.16;107422;1268;170523;-83
2022/02/06 04:27:34;;;;;;;1.00;0.90;;;;;;;0.53;73.21;96431.41;106437;1268;1334592;-82
2022/02/06 04:30:07;;;;;;;2.10;0.90;;;;;;;0.58;73.38;96435.27;107475;1268;151356;-83
2022/02/06 04:32:38;;;;;;;1.20;0.80;;;;;;;0.58;73.41;96430.84;107459;1268;160639;-83
2022/02/06 04:35:15;;;;;;;3.50;1.90;;;;;;;0.60;73.31;96423.52;107717;1268;119691;-82
2022/02/06 04:38:01;;;;;;;4.60;1.70;;;;;;;0.61;73.14;96413.79;107408;1268;190376;-82
2022/02/06 04:40:47;;;;;;;2.80;1.10;;;;;;;0.64;73.31;96412.86;107445;1268;177736;-83
2022/02/06 04:43:45;;;;;;;2.30;1.30;;;;;;;0.67;73.00;96412.94;107438;1265;171971;-83
2022/02/06 04:52:48;;;;;;;2.10;1.20;;;;;;;0.76;72.70;96388.00;102153;1309;2081232;-83
2022/02/06 05:15:07;;;;;;;3.90;1.60;;;;;;;0.74;72.39;96367.96;107618;1267;123118;-83
2022/02/06 05:26:38;;;;;;;3.70;1.60;;;;;;;0.70;72.78;96369.68;105926;1268;1861139;-83
2022/02/06 05:29:20;;;;;;;5.80;0.90;;;;;;;0.66;72.84;96358.61;107770;1268;141983;-83
2022/02/06 05:32:12;;;;;;;3.70;1.50;;;;;;;0.67;73.01;96357.80;107432;1267;151614;-82
2022/02/06 05:34:44;;;;;;;2.50;1.30;;;;;;;0.65;73.08;96352.42;106088;1268;1766339;-81
2022/02/06 05:37:15;;;;;;;1.40;1.30;;;;;;;0.60;73.02;96348.91;107589;1268;100795;-83
2022/02/06 05:39:47;;;;;;;1.80;1.30;;;;;;;0.65;73.12;96351.38;107603;1267;118788;-82
2022/02/06 05:42:20;;;;;;;2.60;1.70;;;;;;;0.67;72.84;96349.65;107517;1268;185242;-82
2022/02/06 05:44:55;;;;;;;1.50;0.90;;;;;;;0.63;72.87;96343.09;107969;1267;199302;-82
2022/02/06 05:47:27;;;;;;;2.00;1.00;;;;;;;0.67;72.75;96343.88;107791;1267;290747;-83
2022/02/06 05:49:59;;;;;;;1.40;0.80;;;;;;;0.69;72.85;96333.37;107593;1267;107457;-83
2022/02/06 05:52:30;;;;;;;2.60;1.20;;;;;;;0.68;72.57;96329.52;107486;1266;152703;-83
2022/02/06 05:55:03;;;;;;;2.00;1.50;;;;;;;0.69;72.55;96328.73;107433;1268;176916;-83
2022/02/06 05:57:34;;;;;;;2.40;1.30;;;;;;;0.73;72.77;96317.64;107313;1268;154105;-83
2022/02/06 06:00:06;;;;;;;3.40;1.30;;;;;;;0.71;72.45;96310.03;107594;1268;103023;-83
2022/02/06 06:02:37;;;;;;;2.20;1.10;;;;;;;0.72;72.49;96312.55;107610;1267;102249;-83
2022/02/06 06:05:10;;;;;;;1.60;1.10;;;;;;;0.74;72.50;96314.02;107655;1267;118687;-83
2022/02/06 06:07:45;;;;;;;4.40;1.60;;;;;;;0.73;72.65;96307.16;107583;1267;130950;-82
2022/02/06 06:10:16;;;;;;;2.20;0.80;;;;;;;0.73;72.75;96304.39;107521;1268;141166;-83
2022/02/06 06:12:48;;;;;;;4.00;1.60;;;;;;;0.75;72.81;96305.36;107360;1267;149304;-82
2022/02/06 06:15:20;;;;;;;3.10;1.30;;;;;;;0.77;72.43;96305.52;107530;1268;148250;-83
2022/02/06 06:17:51;;;;;;;2.20;1.10;;;;;;;0.75;72.38;96304.75;107398;1267;148365;-83
2022/02/06 06:20:25;;;;;;;2.80;1.10;;;;;;;0.80;72.14;96297.33;107424;1267;135031;-84
2022/02/06 06:22:56;;;;;;;3.00;1.30;;;;;;;0.82;72.31;96303.08;107549;1268;97557;-83
2022/02/06 06:25:35;;;;;;;2.10;1.60;;;;;;;0.79;72.34;96294.45;105725;1268;2288388;-83
2022/02/06 06:28:07;;;;;;;3.20;1.90;;;;;;;0.77;72.28;96280.80;107378;1268;130219;-82
2022/02/06 06:30:38;;;;;;;1.50;1.00;;;;;;;0.81;72.44;96291.01;107526;1268;153033;-83
2022/02/06 06:33:11;;;;;;;1.80;1.10;;;;;;;0.86;72.26;96279.23;107693;1267;118706;-83
2022/02/06 06:35:44;;;;;;;3.70;1.80;;;;;;;0.84;72.24;96293.33;106338;1268;2144119;-83
2022/02/06 06:38:16;;;;;;;1.50;1.20;;;;;;;0.85;72.39;96289.08;104995;1267;1966480;-82
2022/02/06 06:40:47;;;;;;;2.00;1.10;;;;;;;0.89;72.38;96282.23;107501;1267;136492;-83
2022/02/06 06:43:19;;;;;;;4.00;1.60;;;;;;;0.95;72.31;96282.36;107429;1268;126568;-83
2022/02/06 06:45:50;;;;;;;2.50;0.90;;;;;;;1.02;71.84;96281.02;107533;1270;127050;-83
2022/02/06 06:48:21;;;;;;;2.80;1.30;;;;;;;1.09;71.64;96275.75;107492;1268;118314;-83
2022/02/06 06:50:53;;;;;;;1.90;1.10;;;;;;;1.15;71.38;96266.86;107429;1268;138140;-83
2022/02/06 06:53:24;;;;;;;3.60;1.50;;;;;;;1.19;71.32;96264.66;107385;1268;146832;-83
2022/02/06 06:56:00;;;;;;;1.10;0.90;;;;;;;1.19;71.60;96263.25;107481;1268;147721;-83
2022/02/06 06:58:36;;;;;;;2.20;1.10;;;;;;;1.22;71.57;96262.88;105583;1268;2575515;-83
2022/02/06 07:01:20;;;;;;;1.80;0.90;;;;;;;1.25;71.64;96248.33;107329;1268;206486;-83
2022/02/06 07:03:51;;;;;;;1.30;1.20;;;;;;;1.31;71.19;96243.05;106226;1268;1499955;-83
2022/02/06 07:06:25;;;;;;;3.60;1.80;;;;;;;1.35;71.20;96250.84;107379;1270;147918;-83
2022/02/06 07:08:57;;;;;;;3.60;1.40;;;;;;;1.37;71.28;96253.17;107518;1268;111173;-82
2022/02/06 07:11:28;;;;;;;2.70;1.40;;;;;;;1.38;71.31;96251.90;107555;1268;123842;-83
2022/02/06 07:13:59;;;;;;;2.60;1.50;;;;;;;1.39;71.41;96243.45;107514;1270;119420;-83
2022/02/06 07:16:30;;;;;;;3.40;1.50;;;;;;;1.41;70.88;96233.34;107502;1268;94621;-83
2022/02/06 07:19:02;;;;;;;2.50;1.40;;;;;;;1.52;70.55;96241.42;107359;1270;143629;-83
2022/02/06 07:21:38;;;;;;;3.00;1.60;;;;;;;1.56;70.81;96230.71;107344;1268;159600;-83
2022/02/06 07:24:10;;;;;;;9.10;1.90;;;;;;;1.59;70.50;96220.22;107658;1268;117794;-83
2022/02/06 07:26:43;;;;;;;4.30;1.80;;;;;;;1.63;70.39;96231.21;107632;1270;122406;-83
2022/02/06 07:29:16;;;;;;;3.90;1.70;;;;;;;1.68;70.40;96221.38;107545;1270;132408;-82
2022/02/06 07:31:48;;;;;;;3.90;1.60;;;;;;;1.74;70.29;96216.60;107205;1270;189352;-83
2022/02/06 07:34:19;;;;;;;5.50;2.00;;;;;;;1.78;70.22;96217.67;107559;1268;121581;-82
2022/02/06 07:36:52;;;;;;;4.00;1.50;;;;;;;1.89;70.42;96207.00;107313;1268;147569;-83
2022/02/06 07:39:24;;;;;;;3.20;2.10;;;;;;;2.06;69.81;96216.00;107513;1268;145671;-83
2022/02/06 07:41:55;;;;;;;4.90;1.70;;;;;;;2.35;69.22;96213.94;107473;1268;149252;-83
2022/02/06 07:44:26;;;;;;;6.00;1.60;;;;;;;2.71;68.55;96208.11;107901;1270;156138;-83
2022/02/06 07:47:06;;;;;;;2.80;1.40;;;;;;;3.02;67.70;96208.58;108026;1270;37854;-83
2022/02/06 07:49:37;;;;;;;3.10;1.40;;;;;;;3.25;66.40;96213.51;108009;1270;54169;-83
2022/02/06 07:52:10;;;;;;;3.90;1.80;;;;;;;3.47;65.25;96200.55;107889;1268;168153;-83
2022/02/06 07:54:42;;;;;;;3.60;1.60;;;;;;;3.74;64.86;96202.71;107812;1268;194934;-84
2022/02/06 07:57:14;;;;;;;8.00;2.80;;;;;;;4.04;63.87;96195.50;107469;1268;155423;-81
2022/02/06 07:59:47;;;;;;;2.60;1.50;;;;;;;4.14;63.23;96197.75;107609;1268;106283;-83
2022/02/06 08:02:20;;;;;;;4.00;1.40;;;;;;;4.15;62.60;96197.13;108027;1270;54007;-83
2022/02/06 08:04:57;;;;;;;3.90;1.80;;;;;;;4.01;61.83;96193.27;106607;1270;1864152;-84
2022/02/06 08:07:31;;;;;;;3.20;2.00;;;;;;;4.04;62.34;96199.63;107788;1270;193883;-83
2022/02/06 08:10:04;;;;;;;3.10;1.70;;;;;;;4.26;62.54;96187.52;106050;1270;2111409;-83
2022/02/06 08:12:44;;;;;;;4.10;1.60;;;;;;;4.31;61.66;96183.90;107980;1268;70887;-84
2022/02/06 08:15:16;;;;;;;5.30;2.10;;;;;;;4.14;61.47;96185.85;107899;1269;144214;-84
2022/02/06 08:17:48;;;;;;;3.70;2.30;;;;;;;4.09;61.74;96181.38;108032;1268;62247;-83
2022/02/06 08:20:20;;;;;;;4.20;1.70;;;;;;;3.82;61.86;96169.20;106773;1270;1706805;-84
2022/02/06 08:22:52;;;;;;;3.00;1.20;;;;;;;3.42;62.70;96165.27;107468;1269;118272;-84
2022/02/06 08:25:28;;;;;;;5.10;1.40;;;;;;;3.17;63.49;96169.61;105501;1268;2606678;-83
2022/02/06 08:28:00;;;;;;;3.60;1.90;;;;;;;2.97;64.32;96181.22;105870;1268;1957443;-83
2022/02/06 08:30:32;;;;;;;1.90;1.10;;;;;;;3.02;64.70;96165.11;107445;1268;186735;-84
2022/02/06 08:33:05;;;;;;;2.30;1.20;;;;;;;2.89;64.98;96167.29;107174;1270;256069;-84
2022/02/06 08:35:37;;;;;;;4.60;1.70;;;;;;;2.85;65.73;96170.73;106140;1270;1855888;-84
2022/02/06 08:38:10;;;;;;;5.20;1.70;;;;;;;2.85;65.74;96148.65;107376;1268;120890;-84
2022/02/06 08:40:42;;;;;;;4.00;1.70;;;;;;;2.86;66.26;96166.63;107654;1268;209839;-84
2022/02/06 08:43:13;;;;;;;5.60;2.20;;;;;;;2.90;66.29;96173.99;107687;1268;119763;-81
2022/02/06 08:45:45;;;;;;;1.90;1.10;;;;;;;2.86;66.42;96174.58;107250;1268;177176;-83
2022/02/06 08:48:17;;;;;;;2.60;1.10;;;;;;;2.73;66.52;96165.06;107429;1268;137398;-84
2022/02/06 08:50:48;;;;;;;5.00;1.80;;;;;;;2.62;66.92;96154.85;107280;1269;168590;-83
2022/02/06 08:53:20;;;;;;;2.20;1.30;;;;;;;2.64;67.28;96163.04;107329;1270;184714;-84
2022/02/06 08:55:56;;;;;;;3.90;1.50;;;;;;;2.70;67.35;96162.73;108063;1268;40661;-84
2022/02/06 08:58:28;;;;;;;3.50;1.20;;;;;;;2.73;67.42;96172.91;107982;1268;44982;-84
2022/02/06 09:01:00;;;;;;;1.40;1.00;;;;;;;2.75;67.29;96158.12;107331;1270;116066;-82
2022/02/06 09:03:31;;;;;;;3.00;1.40;;;;;;;2.73;67.54;96181.08;107520;1270;131094;-83
2022/02/06 09:06:03;;;;;;;2.90;1.50;;;;;;;2.77;67.46;96170.96;104282;1268;4360742;-83
2022/02/06 09:08:35;;;;;;;6.60;2.00;;;;;;;2.78;67.60;96181.89;106669;1268;1216621;-83
2022/02/06 09:11:07;;;;;;;2.70;1.70;;;;;;;2.81;67.62;96165.80;107457;1268;159607;-83
2022/02/06 09:13:38;;;;;;;3.30;1.40;;;;;;;2.81;67.56;96159.50;106213;1268;1776133;-84
2022/02/06 09:16:09;;;;;;;4.40;1.50;;;;;;;2.81;67.36;96168.31;107460;1270;159554;-84
2022/02/06 09:18:41;;;;;;;5.30;2.20;;;;;;;2.85;67.34;96167.49;107450;1268;242200;-83
2022/02/06 09:21:16;;;;;;;3.10;1.20;;;;;;;2.87;67.19;96159.08;105954;1268;2177192;-84
2022/02/06 09:23:48;;;;;;;1.80;1.30;;;;;;;2.86;66.99;96169.98;106170;1268;1775217;-83
2022/02/06 09:26:21;;;;;;;3.10;1.40;;;;;;;2.86;67.04;96161.96;107490;1268;145129;-84
2022/02/06 09:28:53;;;;;;;2.50;1.20;;;;;;;2.89;66.99;96157.60;105462;1268;1326010;-84
2022/02/06 09:31:26;;;;;;;2.40;1.80;;;;;;;2.90;66.80;96167.36;107384;1268;125929;-83
2022/02/06 09:36:29;;;;;;;2.40;1.20;;;;;;;2.97;66.92;96153.67;107296;1270;157263;-84
2022/02/06 09:39:02;;;;;;;2.80;1.20;;;;;;;3.01;66.55;96138.75;107268;1270;127163;-84
2022/02/06 09:41:36;;;;;;;1.40;1.10;;;;;;;3.02;66.56;96144.43;107088;1268;207859;-83
2022/02/06 09:44:10;;;;;;;2.30;1.60;;;;;;;3.06;66.09;96146.35;107455;1270;117551;-83
2022/02/06 09:46:45;;;;;;;1.60;1.00;;;;;;;3.16;65.93;96142.14;107714;1268;108102;-83
2022/02/06 09:49:17;;;;;;;5.10;1.30;;;;;;;3.29;65.46;96127.55;107617;1268;121003;-83
2022/02/06 09:51:49;;;;;;;2.00;1.30;;;;;;;3.38;65.06;96109.56;107459;1268;118559;-83
2022/02/06 09:54:22;;;;;;;1.50;1.00;;;;;;;3.43;65.04;96106.69;107434;1268;136464;-83
2022/02/06 09:56:57;;;;;;;1.30;1.10;;;;;;;3.38;64.55;96114.33;107494;1270;126235;-84
2022/02/06 09:59:37;;;;;;;3.10;0.90;;;;;;;3.38;64.62;96103.55;107337;1270;145551;-83
2022/02/06 10:02:11;;;;;;;3.90;1.60;;;;;;;3.40;64.65;96100.70;107388;1270;171847;-83
2022/02/06 10:04:43;;;;;;;2.50;1.50;;;;;;;3.47;64.65;96089.13;107622;1268;167539;-83
2022/02/06 10:07:22;;;;;;;2.00;1.40;;;;;;;3.54;64.51;96093.35;107393;1269;179091;-82
2022/02/06 10:09:57;;;;;;;2.50;1.50;;;;;;;3.59;64.07;96079.30;107443;1268;175844;-83
2022/02/06 10:12:34;;;;;;;3.50;1.70;;;;;;;3.63;63.96;96076.71;107488;1268;121530;-83
2022/02/06 10:15:07;;;;;;;3.50;1.90;;;;;;;3.65;63.63;96081.54;107556;1270;35341;-83
2022/02/06 10:17:39;;;;;;;2.60;1.50;;;;;;;3.65;63.51;96048.98;107712;1268;114297;-83
2022/02/06 10:20:24;;;;;;;1.40;1.10;;;;;;;3.66;63.49;96053.25;107624;1268;153462;-83
2022/02/06 10:22:58;;;;;;;2.10;0.90;;;;;;;3.65;63.32;96051.41;107655;1268;108961;-83
2022/02/06 10:25:31;;;;;;;2.20;1.10;;;;;;;3.65;63.47;96044.48;107839;1270;56808;-83
2022/02/06 10:28:21;;;;;;;5.20;1.40;;;;;;;3.76;63.46;96035.42;106173;1269;1847678;-84
2022/02/06 10:30:54;;;;;;;2.70;1.30;;;;;;;3.82;63.06;96033.19;107384;1270;167048;-83
2022/02/06 10:33:42;;;;;;;1.70;0.80;;;;;;;3.71;62.82;96034.70;107482;1268;119890;-83
2022/02/06 10:36:15;;;;;;;3.20;1.20;;;;;;;3.63;63.05;96013.23;108045;1270;37572;-83
2022/02/06 10:38:48;;;;;;;2.70;1.50;;;;;;;3.56;63.38;96010.14;107783;1268;124735;-85
2022/02/06 10:41:24;;;;;;;4.20;1.50;;;;;;;3.63;63.71;96029.79;108058;1269;33417;-83
2022/02/06 10:43:59;;;;;;;2.60;1.20;;;;;;;3.69;63.48;96007.64;108061;1270;58139;-83
2022/02/06 10:46:32;;;;;;;2.50;1.30;;;;;;;3.74;63.72;96015.37;107412;1268;101237;-83
2022/02/06 10:49:12;;;;;;;3.70;1.30;;;;;;;3.87;63.65;96010.52;108053;1268;39032;-83
2022/02/06 10:51:48;;;;;;;2.60;1.70;;;;;;;3.95;63.49;96012.63;108001;1269;61841;-83
2022/02/06 10:54:25;;;;;;;1.90;1.10;;;;;;;3.94;63.22;95995.24;107926;1268;167949;-84
2022/02/06 10:57:06;;;;;;;3.80;1.80;;;;;;;3.90;63.55;95996.00;107967;1268;43561;-84
2022/02/06 10:59:49;;;;;;;1.90;0.80;;;;;;;3.92;63.66;95980.96;107425;1269;133418;-84
2022/02/06 11:02:28;;;;;;;1.90;1.30;;;;;;;3.84;63.50;95989.93;107512;1268;113113;-83
2022/02/06 11:05:09;;;;;;;1.60;1.00;;;;;;;3.78;63.68;95984.00;107533;1268;117291;-84
2022/02/06 11:07:51;;;;;;;3.80;1.40;;;;;;;3.69;64.24;95981.10;107698;1270;105570;-83
2022/02/06 11:10:24;;;;;;;1.90;0.90;;;;;;;3.63;64.51;95987.38;107405;1268;137549;-83
2022/02/06 11:12:56;;;;;;;1.70;1.10;;;;;;;3.53;64.63;95970.27;107312;1268;138743;-83
2022/02/06 11:15:31;;;;;;;4.30;1.50;;;;;;;3.48;64.99;95973.77;107471;1265;129784;-83
2022/02/06 11:18:14;;;;;;;2.00;1.30;;;;;;;3.44;65.11;95956.27;107453;1269;105551;-83
2022/02/06 11:20:58;;;;;;;3.60;1.50;;;;;;;3.36;65.36;95965.23;107625;1269;92868;-82
2022/02/06 11:23:48;;;;;;;3.70;1.50;;;;;;;3.26;65.73;95959.30;107400;1270;147004;-82
2022/02/06 11:26:22;;;;;;;3.90;1.70;;;;;;;3.22;66.07;95947.71;107559;1268;116777;-82
2022/02/06 11:28:58;;;;;;;1.80;1.30;;;;;;;3.17;66.46;95935.10;107495;1266;111967;-83
2022/02/06 11:31:29;;;;;;;2.30;1.10;;;;;;;3.14;66.72;95928.42;107269;1269;199135;-83
2022/02/06 11:34:01;;;;;;;3.80;1.20;;;;;;;3.12;66.84;95934.95;107432;1270;120711;-83
2022/02/06 11:45:34;;;;;;;5.20;1.30;;;;;;;3.40;67.23;95912.36;104335;1268;2568462;-82
2022/02/06 11:48:09;;;;;;;2.00;1.20;;;;;;;3.51;67.14;95925.45;106084;1268;1746909;-82
2022/02/06 11:50:47;;;;;;;3.90;1.70;;;;;;;3.60;66.78;95928.50;107739;1268;120722;-82
2022/02/06 11:53:33;;;;;;;2.60;1.30;;;;;;;3.66;66.71;95918.06;107312;1270;176977;-82
2022/02/06 11:56:20;;;;;;;2.90;1.20;;;;;;;3.60;66.48;95910.15;107396;1268;233144;-82
2022/02/06 11:58:53;;;;;;;3.10;1.40;;;;;;;3.59;66.42;95897.26;105742;1270;2102059;-82
2022/02/06 12:01:29;;;;;;;1.40;1.20;;;;;;;3.58;66.45;95889.80;105426;1270;1365000;-82
2022/02/06 12:04:19;;;;;;;3.30;0.70;;;;;;;3.64;66.36;95903.89;107401;1270;148633;-82
2022/02/06 12:06:57;;;;;;;;;;;;;;;3.63;66.44;95895.17;106524;1268;1490344;-83
2022/02/06 12:09:31;;;;;;;2.10;1.10;;;;;;;3.60;66.60;95900.56;104404;1270;2076716;-82
2022/02/06 12:12:14;;;;;;;1.80;1.30;;;;;;;3.58;66.73;95898.71;107436;1268;143452;-82
2022/02/06 12:14:53;;;;;;;3.30;1.20;;;;;;;3.57;66.88;95899.34;107410;1268;188805;-82
2022/02/06 12:17:43;;;;;;;1.80;1.20;;;;;;;3.59;67.07;95893.85;106227;1268;1508855;-83
2022/02/06 12:20:17;;;;;;;1.90;1.00;;;;;;;3.63;67.16;95890.09;107362;1268;180526;-80
2022/02/06 12:22:49;;;;;;;4.30;1.30;;;;;;;3.61;67.30;95891.13;107291;1268;180014;-83
2022/02/06 12:25:34;;;;;;;2.90;1.50;;;;;;;3.56;67.26;95889.27;107374;1270;123225;-83
2022/02/06 12:28:30;;;;;;;2.30;1.30;;;;;;;3.52;67.50;95886.26;107300;1269;163124;-83
2022/02/06 12:31:27;;;;;;;2.00;0.90;;;;;;;3.49;67.67;95877.58;107438;1268;171446;-83
2022/02/06 12:34:10;;;;;;;1.60;1.00;;;;;;;3.48;67.92;95868.08;108080;1268;42683;-82
2022/02/06 12:39:34;;;;;;;1.70;0.80;;;;;;;3.61;67.99;95869.70;107945;1268;80248;-83
2022/02/06 12:42:16;;;;;;;2.70;1.10;;;;;;;3.60;68.03;95859.10;104748;1268;4514092;-83
2022/02/06 12:44:48;;;;;;;2.10;1.00;;;;;;;3.54;67.97;95864.32;106358;1268;1916931;-82
2022/02/06 12:47:20;;;;;;;3.60;1.40;;;;;;;3.52;68.48;95856.40;106245;1268;1998647;-83
2022/02/06 12:49:52;;;;;;;1.20;0.70;;;;;;;3.47;68.39;95840.25;107380;1268;159229;-82
2022/02/06 12:52:23;;;;;;;1.60;0.90;;;;;;;3.43;68.61;95850.50;107487;1268;206819;-83
2022/02/06 12:54:55;;;;;;;2.00;1.10;;;;;;;3.45;68.95;95853.19;107251;1270;163455;-82
2022/02/06 12:57:27;;;;;;;7.60;1.40;;;;;;;3.47;68.99;95842.71;107448;1268;142836;-82
2022/02/06 12:59:59;;;;;;;3.80;1.30;;;;;;;3.50;69.06;95837.11;107448;1270;146323;-82
2022/02/06 13:02:35;;;;;;;1.60;0.80;;;;;;;3.51;69.11;95834.77;107532;1268;129568;-83
2022/02/06 13:05:13;;;;;;;0.90;0.70;;;;;;;3.49;69.20;95841.77;107457;1270;127511;-83
2022/02/06 13:07:50;;;;;;;1.90;1.00;;;;;;;3.44;69.28;95840.40;107862;1270;176017;-83
2022/02/06 13:10:26;;;;;;;1.80;1.10;;;;;;;3.40;69.65;95837.80;107937;1268;39764;-83
2022/02/06 13:13:10;;;;;;;2.30;1.20;;;;;;;3.34;69.86;95832.61;107189;1268;1082201;-83
2022/02/06 13:15:53;;;;;;;2.00;1.10;;;;;;;3.30;70.13;95825.10;107922;1268;274199;-83
2022/02/06 13:21:42;;;;;;;2.10;1.10;;;;;;;3.25;70.38;95813.39;107203;1269;189842;-83
2022/02/06 13:24:26;;;;;;;2.50;0.80;;;;;;;3.24;70.30;95797.26;107665;1268;138463;-83
2022/02/06 13:27:20;;;;;;;1.20;0.70;;;;;;;3.25;70.31;95810.30;105496;1268;2623607;-83
2022/02/06 13:30:00;;;;;;;2.20;0.90;;;;;;;3.24;70.41;95798.81;106747;1268;1778707;-82
2022/02/06 13:32:37;;;;;;;1.20;0.60;;;;;;;3.25;70.28;95791.17;108019;1268;109115;-82